This is the latest recevied weather packets stored in our database for station/object LU5HOA-13. If no packets are shown the sender has not sent any weather packets the latest 10 day(s).
| Time | Temp. | Humidity | Pressure | Rain* | Wind** | Luminosity | Snow |
|---|---|---|---|---|---|---|---|
| 1787620503 | 10° C | 85% | - | 0 mm | - | - | - |
| 1787619902 | 10° C | 84% | - | 0 mm | - | - | - |
| 1787619300 | 10.56° C | 82% | - | 0 mm | - | - | - |
| 1787618700 | 10.56° C | 82% | - | 0 mm | - | - | - |
| 1787618092 | 10.56° C | 81% | - | 0 mm | - | - | - |
| 1787617489 | 11.11° C | 79% | - | 0 mm | - | - | - |
| 1787616382 | 10.56° C | 81% | - | 0 mm | - | - | - |
| 1787615778 | 11.11° C | 79% | - | 0 mm | - | - | - |
| 1787615177 | 11.11° C | 79% | - | 0 mm | - | - | - |
| 1787614575 | 11.67° C | 76% | - | 0 mm | - | - | - |
| 1787613973 | 11.67° C | 74% | - | 0 mm | - | - | - |
| 1787613372 | 11.67° C | 74% | - | 0 mm | - | - | - |
| 1787612763 | 12.22° C | 71% | - | 0 mm | - | - | - |
| 1787612161 | 12.22° C | 69% | - | 0 mm | - | - | - |
| 1787611293 | 0° C | - | 0 hPa | 0 mm | - | - | - |
| 1787610689 | 0° C | - | 0 hPa | 0 mm | - | - | - |
| 1787609923 | 13.33° C | - | 963.1 hPa | 0 mm | - | - | - |
| 1787609320 | 13.89° C | - | 963.1 hPa | 0 mm | - | - | - |
| 1787608673 | 13.89° C | - | 962.1 hPa | 4.57 mm | - | - | - |
| 1787608071 | 14.44° C | - | 962.1 hPa | 4.57 mm | - | - | - |
| 1787607380 | 15° C | - | - | 30.23 mm | - | - | - |
| 1787606778 | 15° C | - | - | 220.98 mm | - | - | - |
| 1787606177 | 15.56° C | - | - | 142.24 mm | - | - | - |
| 1787605574 | 16.11° C | - | - | 114.05 mm | - | - | - |
| 1787604369 | 16.11° C | - | - | 57.91 mm | - | - | - |
* Rain latest hour (hover to see other rain measurements)
** Current wind speed in m/s (hover to see current wind gust speed)